createdAt,value
2023-06-30T00:00:13.042Z,5.23
2023-06-30T00:02:42.493Z,4.77
2023-06-30T00:05:12.640Z,4.40
2023-06-30T00:07:41.226Z,4.57
2023-06-30T00:10:10.283Z,4.50
2023-06-30T00:12:38.741Z,3.70
2023-06-30T00:15:07.662Z,3.17
2023-06-30T00:17:36.590Z,2.83
2023-06-30T00:20:06.883Z,3.00
2023-06-30T00:22:37.187Z,3.30
2023-06-30T00:25:05.772Z,2.87
2023-06-30T00:27:34.029Z,2.50
2023-06-30T00:30:02.308Z,2.73
2023-06-30T00:32:32.871Z,2.40
2023-06-30T00:35:01.306Z,2.07
2023-06-30T00:37:29.575Z,2.00
2023-06-30T00:39:59.237Z,2.40
2023-06-30T00:42:27.453Z,2.80
2023-06-30T00:44:55.683Z,2.50
2023-06-30T00:47:23.937Z,2.80
2023-06-30T00:49:52.964Z,2.70
2023-06-30T00:52:21.230Z,3.37
2023-06-30T00:54:49.473Z,2.90
2023-06-30T00:57:19.096Z,3.30
2023-06-30T00:59:47.320Z,3.67
2023-06-30T01:02:17.050Z,4.63
2023-06-30T01:04:47.500Z,4.40
2023-06-30T01:07:20.094Z,5.03
2023-06-30T01:09:59.493Z,4.93
2023-06-30T01:12:29.166Z,5.30
2023-06-30T01:14:58.003Z,5.07
2023-06-30T01:17:26.890Z,4.80
2023-06-30T01:19:57.216Z,4.90
2023-06-30T01:22:27.304Z,4.73
2023-06-30T01:24:58.102Z,4.80
2023-06-30T01:27:26.721Z,4.20
2023-06-30T01:29:56.937Z,4.83
2023-06-30T01:32:25.308Z,4.63
2023-06-30T01:34:53.630Z,4.80
2023-06-30T01:37:21.830Z,4.90
2023-06-30T01:39:50.026Z,5.03
2023-06-30T01:42:19.743Z,4.90
2023-06-30T01:44:48.253Z,4.93
2023-06-30T01:47:18.759Z,5.20
2023-06-30T01:49:47.165Z,5.20
2023-06-30T01:52:15.409Z,5.93
2023-06-30T01:54:43.715Z,5.70
2023-06-30T01:57:13.230Z,5.87
2023-06-30T01:59:41.495Z,5.47
2023-06-30T02:02:09.742Z,6.33
2023-06-30T02:04:39.360Z,6.43
2023-06-30T02:07:07.717Z,6.33
2023-06-30T02:09:47.094Z,6.47
2023-06-30T02:12:15.939Z,6.80
2023-06-30T02:14:44.274Z,7.50
2023-06-30T02:17:12.506Z,6.70
2023-06-30T02:19:42.042Z,8.23
2023-06-30T02:22:10.362Z,7.93
2023-06-30T02:24:38.564Z,8.97
2023-06-30T02:27:07.892Z,9.33
2023-06-30T02:29:36.070Z,9.40
2023-06-30T02:32:04.289Z,9.37
2023-06-30T02:34:32.501Z,8.97
2023-06-30T02:37:02.780Z,9.13
2023-06-30T02:39:30.978Z,10.07
2023-06-30T02:41:59.221Z,11.23
2023-06-30T02:44:27.638Z,11.07
2023-06-30T02:46:55.923Z,11.47
2023-06-30T02:49:24.138Z,10.73
2023-06-30T02:51:52.344Z,11.43
2023-06-30T02:54:21.969Z,12.07
2023-06-30T02:56:50.206Z,12.43
2023-06-30T02:59:18.776Z,12.47
2023-06-30T03:01:47.151Z,11.90
2023-06-30T03:04:15.564Z,13.33
2023-06-30T03:06:43.777Z,11.80
2023-06-30T03:09:12.022Z,13.53
2023-06-30T03:11:41.610Z,13.43
2023-06-30T03:14:09.829Z,13.30
2023-06-30T03:16:38.705Z,12.67
2023-06-30T03:19:06.914Z,12.83
2023-06-30T03:21:35.152Z,13.00
2023-06-30T03:24:03.637Z,11.97
2023-06-30T03:26:31.833Z,11.73
2023-06-30T03:29:02.763Z,11.60
2023-06-30T03:31:31.101Z,11.17
2023-06-30T03:34:00.573Z,11.17
2023-06-30T03:36:28.799Z,10.60
2023-06-30T03:38:57.002Z,10.47
2023-06-30T03:41:25.212Z,10.57
2023-06-30T03:43:53.398Z,10.97
2023-06-30T03:46:22.986Z,10.40
2023-06-30T03:48:51.238Z,9.63
2023-06-30T03:51:19.531Z,10.37
2023-06-30T03:53:47.704Z,9.47
2023-06-30T03:56:15.940Z,9.13
2023-06-30T03:58:44.223Z,8.60
2023-06-30T04:01:12.429Z,8.20
2023-06-30T04:03:42.139Z,8.77
2023-06-30T04:06:10.406Z,8.57
2023-06-30T04:08:38.631Z,9.03
2023-06-30T04:11:06.840Z,8.53
2023-06-30T04:13:35.066Z,8.57
2023-06-30T04:16:03.448Z,8.30
2023-06-30T04:18:31.719Z,8.67
2023-06-30T04:21:01.286Z,8.30
2023-06-30T04:23:29.504Z,7.83
2023-06-30T04:25:57.962Z,7.77
2023-06-30T04:28:26.146Z,7.73
2023-06-30T04:30:54.320Z,9.13
2023-06-30T04:33:22.515Z,7.93
2023-06-30T04:35:50.803Z,8.40
2023-06-30T04:38:22.757Z,8.20
2023-06-30T04:40:51.680Z,8.23
2023-06-30T04:43:19.898Z,7.10
2023-06-30T04:45:48.546Z,7.97
2023-06-30T04:48:16.786Z,7.47
2023-06-30T04:50:45.134Z,6.57
2023-06-30T04:53:13.348Z,7.17
2023-06-30T04:55:43.160Z,6.17
2023-06-30T04:58:11.776Z,7.20
2023-06-30T05:00:43.895Z,6.73
2023-06-30T05:03:12.312Z,6.33
2023-06-30T05:05:40.565Z,7.20
2023-06-30T05:08:08.796Z,6.77
2023-06-30T05:10:37.055Z,7.13
2023-06-30T05:13:06.657Z,7.07
2023-06-30T05:15:34.910Z,7.00
2023-06-30T05:18:03.176Z,6.63
2023-06-30T05:20:33.233Z,7.13
2023-06-30T05:23:01.468Z,6.93
2023-06-30T05:25:29.714Z,7.20
2023-06-30T05:27:57.959Z,7.00
2023-06-30T05:30:27.550Z,6.93
2023-06-30T05:32:55.787Z,6.60
2023-06-30T05:35:24.023Z,6.40
2023-06-30T05:37:52.240Z,6.87
2023-06-30T05:40:20.507Z,6.90
2023-06-30T05:42:48.711Z,6.10
2023-06-30T05:45:16.940Z,6.03
2023-06-30T05:47:46.476Z,5.57
2023-06-30T05:50:14.760Z,4.80
2023-06-30T05:52:42.969Z,4.83
2023-06-30T05:55:11.234Z,4.80
2023-06-30T05:57:39.444Z,4.73
2023-06-30T06:00:08.923Z,5.17
2023-06-30T06:02:37.237Z,4.43
2023-06-30T06:05:07.448Z,4.10
2023-06-30T06:07:35.822Z,4.30
2023-06-30T06:10:04.140Z,3.20
2023-06-30T06:12:32.352Z,3.30
2023-06-30T06:15:00.539Z,3.33
2023-06-30T06:17:28.966Z,2.97
2023-06-30T06:19:58.610Z,2.87
2023-06-30T06:22:28.248Z,2.70
2023-06-30T06:24:56.454Z,2.80
2023-06-30T06:27:24.721Z,3.20
2023-06-30T06:29:52.931Z,3.03
2023-06-30T06:32:21.170Z,2.80
2023-06-30T06:34:49.419Z,3.17
2023-06-30T06:37:18.264Z,2.73
2023-06-30T06:39:47.875Z,3.10
2023-06-30T06:42:16.140Z,3.10
2023-06-30T06:44:45.671Z,2.63
2023-06-30T06:47:32.336Z,2.70
2023-06-30T06:50:01.819Z,2.43
2023-06-30T06:52:30.155Z,2.38
2023-06-30T06:54:59.711Z,2.50
2023-06-30T06:57:27.927Z,2.63
2023-06-30T06:59:56.162Z,2.55
2023-06-30T07:02:24.419Z,2.35
2023-06-30T07:04:52.650Z,2.13
2023-06-30T07:07:20.902Z,2.27
2023-06-30T07:09:49.174Z,2.20
2023-06-30T07:12:18.758Z,2.00
2023-06-30T07:14:48.650Z,1.80
2023-06-30T07:17:18.372Z,2.10
2023-06-30T07:19:46.601Z,2.00
2023-06-30T07:22:14.853Z,2.13
2023-06-30T07:24:44.149Z,2.03
2023-06-30T07:27:12.652Z,2.00
2023-06-30T07:29:42.213Z,2.25
2023-06-30T07:32:10.894Z,2.20
2023-06-30T07:34:39.102Z,1.90
2023-06-30T07:37:08.963Z,2.10
2023-06-30T07:39:37.222Z,1.80
2023-06-30T07:42:05.658Z,2.00
2023-06-30T07:44:35.149Z,1.77
2023-06-30T07:47:04.738Z,1.90
2023-06-30T07:49:33.003Z,1.88
2023-06-30T07:52:01.213Z,1.90
2023-06-30T07:54:29.423Z,1.67
2023-06-30T07:56:57.659Z,1.70
2023-06-30T07:59:25.860Z,1.40
2023-06-30T08:01:54.102Z,1.58
2023-06-30T08:04:23.985Z,2.22
2023-06-30T08:06:52.342Z,1.50
2023-06-30T08:09:20.601Z,1.67
2023-06-30T08:11:48.795Z,1.70
2023-06-30T08:14:17.014Z,1.83
2023-06-30T08:16:45.336Z,1.83
2023-06-30T08:19:43.958Z,1.95
2023-06-30T08:22:03.488Z,1.52
2023-06-30T08:24:31.856Z,4.53
2023-06-30T08:27:00.048Z,3.92
2023-06-30T08:29:28.261Z,2.75
2023-06-30T08:31:56.461Z,2.30
2023-06-30T08:34:27.183Z,13.40
2023-06-30T08:36:55.415Z,2.53
2023-06-30T08:39:25.270Z,2.20
2023-06-30T08:41:55.416Z,1.60
2023-06-30T08:44:24.594Z,1.50
2023-06-30T08:46:53.982Z,1.90
2023-06-30T08:49:23.571Z,2.03
2023-06-30T08:51:53.695Z,1.60
2023-06-30T08:54:22.013Z,1.45
2023-06-30T08:56:51.592Z,1.50
2023-06-30T08:59:19.780Z,1.60
2023-06-30T09:01:48.260Z,1.70
2023-06-30T09:04:16.699Z,1.67
2023-06-30T09:06:48.388Z,1.35
2023-06-30T09:09:21.470Z,1.55
2023-06-30T09:11:50.154Z,1.58
2023-06-30T09:14:20.555Z,1.70
2023-06-30T09:16:48.908Z,1.70
2023-06-30T09:19:17.533Z,1.60
2023-06-30T09:21:46.056Z,1.50
2023-06-30T09:24:14.439Z,1.40
2023-06-30T09:26:42.751Z,1.67
2023-06-30T09:29:11.996Z,1.67
2023-06-30T09:31:41.736Z,1.60
2023-06-30T09:34:13.755Z,2.10
2023-06-30T09:36:48.634Z,1.60
2023-06-30T09:39:16.901Z,1.77
2023-06-30T09:41:45.348Z,1.55
2023-06-30T09:44:14.072Z,1.90
2023-06-30T09:46:49.783Z,1.67
2023-06-30T09:49:24.930Z,1.90
2023-06-30T09:51:53.310Z,1.55
2023-06-30T09:54:28.888Z,1.52
2023-06-30T09:57:09.386Z,1.53
2023-06-30T09:59:38.900Z,1.70
2023-06-30T10:02:08.603Z,1.60
2023-06-30T10:04:38.413Z,1.20
2023-06-30T10:07:07.249Z,1.42
2023-06-30T10:09:36.437Z,1.73
2023-06-30T10:12:05.007Z,1.38
2023-06-30T10:14:33.781Z,1.40
2023-06-30T10:17:03.249Z,1.70
2023-06-30T10:19:33.076Z,1.45
2023-06-30T10:22:01.550Z,1.52
2023-06-30T10:24:30.063Z,1.63
2023-06-30T10:27:02.043Z,1.67
2023-06-30T10:29:30.659Z,1.60
2023-06-30T10:31:58.887Z,1.63
2023-06-30T10:34:27.482Z,1.20
2023-06-30T10:36:57.163Z,1.27
2023-06-30T10:39:25.507Z,1.53
2023-06-30T10:41:53.769Z,1.47
2023-06-30T10:44:22.108Z,1.60
2023-06-30T10:46:54.586Z,1.50
2023-06-30T10:49:24.738Z,1.60
2023-06-30T10:51:53.641Z,1.70
2023-06-30T10:54:24.052Z,1.60
2023-06-30T10:56:52.955Z,1.83
2023-06-30T10:59:24.278Z,2.00
2023-06-30T11:02:11.246Z,1.40
2023-06-30T11:04:39.882Z,2.10
2023-06-30T11:07:08.937Z,1.67
2023-06-30T11:09:56.034Z,1.77
2023-06-30T11:12:26.307Z,1.97
2023-06-30T11:14:55.929Z,2.10
2023-06-30T11:17:24.277Z,2.20
2023-06-30T11:20:12.182Z,2.00
2023-06-30T11:22:40.484Z,2.13
2023-06-30T11:25:11.967Z,1.90
2023-06-30T11:27:42.235Z,1.80
2023-06-30T11:30:10.716Z,1.73
2023-06-30T11:32:39.056Z,1.57
2023-06-30T11:35:10.939Z,2.20
2023-06-30T11:37:39.200Z,1.73
2023-06-30T11:40:08.280Z,1.70
2023-06-30T11:42:41.428Z,1.83
2023-06-30T11:45:11.586Z,2.13
2023-06-30T11:47:46.222Z,1.60
2023-06-30T11:50:14.887Z,1.60
2023-06-30T11:52:43.213Z,1.87
2023-06-30T11:55:12.465Z,1.90
2023-06-30T11:57:41.495Z,1.80
2023-06-30T12:00:13.348Z,1.60
2023-06-30T12:02:48.430Z,1.63
2023-06-30T12:05:18.644Z,1.80
2023-06-30T12:07:48.162Z,1.90
2023-06-30T12:10:16.950Z,1.87
2023-06-30T12:12:45.315Z,1.77
2023-06-30T12:15:15.869Z,1.73
2023-06-30T12:17:44.447Z,2.00
2023-06-30T12:20:13.615Z,1.90
2023-06-30T12:22:43.334Z,2.03
2023-06-30T12:25:12.959Z,1.90
2023-06-30T12:27:44.542Z,1.57
2023-06-30T12:30:21.164Z,1.57
2023-06-30T12:32:49.481Z,1.93
2023-06-30T12:35:17.794Z,1.80
2023-06-30T12:37:46.188Z,2.30
2023-06-30T12:40:14.984Z,1.70
2023-06-30T12:42:49.153Z,1.90
2023-06-30T12:45:17.508Z,1.70
2023-06-30T12:47:47.117Z,2.10
2023-06-30T12:50:15.429Z,1.70
2023-06-30T12:52:43.665Z,2.00
2023-06-30T12:55:12.072Z,2.03
2023-06-30T12:57:41.443Z,1.90
2023-06-30T13:00:10.959Z,1.70
2023-06-30T13:02:39.412Z,1.70
2023-06-30T13:05:10.073Z,2.00
2023-06-30T13:07:38.358Z,1.87
2023-06-30T13:10:07.695Z,1.90
2023-06-30T13:12:40.819Z,1.83
2023-06-30T13:15:09.858Z,1.60
2023-06-30T13:17:38.327Z,1.83
2023-06-30T13:20:07.644Z,1.90
2023-06-30T13:22:42.858Z,1.93
2023-06-30T13:25:17.964Z,1.70
2023-06-30T13:27:46.199Z,1.90
2023-06-30T13:30:14.707Z,1.80
2023-06-30T13:32:42.956Z,2.00
2023-06-30T13:35:11.179Z,1.80
2023-06-30T13:37:40.828Z,1.80
2023-06-30T13:40:09.773Z,2.07
2023-06-30T13:42:38.017Z,1.90
2023-06-30T13:45:08.393Z,1.80
2023-06-30T13:47:38.495Z,2.03
2023-06-30T13:50:07.260Z,2.00
2023-06-30T13:52:35.591Z,1.80
2023-06-30T13:55:05.397Z,1.97
2023-06-30T13:57:33.604Z,1.87
2023-06-30T14:00:01.991Z,1.83
2023-06-30T14:02:30.279Z,2.40
2023-06-30T14:04:59.588Z,2.03
2023-06-30T14:07:28.081Z,1.80
2023-06-30T14:09:57.068Z,1.80
2023-06-30T14:12:26.705Z,2.00
2023-06-30T14:14:55.031Z,1.70
2023-06-30T14:17:23.272Z,2.10
2023-06-30T14:19:52.104Z,1.73
2023-06-30T14:22:20.517Z,1.60
2023-06-30T14:24:48.850Z,2.00
2023-06-30T14:27:17.068Z,2.23
2023-06-30T14:29:46.715Z,1.63
2023-06-30T14:32:14.978Z,1.73
2023-06-30T14:34:43.260Z,1.70
2023-06-30T14:37:11.454Z,2.00
2023-06-30T14:39:39.639Z,1.60
2023-06-30T14:42:16.202Z,1.90
2023-06-30T14:44:52.757Z,1.90
2023-06-30T14:47:20.946Z,1.80
2023-06-30T14:49:49.197Z,1.70
2023-06-30T14:52:17.509Z,1.50
2023-06-30T14:54:45.752Z,1.63
2023-06-30T14:57:14.705Z,1.93
2023-06-30T14:59:42.920Z,1.53
2023-06-30T15:02:12.642Z,1.83
2023-06-30T15:04:40.941Z,1.90
2023-06-30T15:07:09.175Z,1.70
2023-06-30T15:09:38.043Z,1.67
2023-06-30T15:12:06.801Z,1.73
2023-06-30T15:14:35.496Z,1.60
2023-06-30T15:17:03.878Z,2.03
2023-06-30T15:19:33.436Z,1.80
2023-06-30T15:22:01.719Z,1.60
2023-06-30T15:24:29.942Z,1.97
2023-06-30T15:26:58.140Z,2.07
2023-06-30T15:29:26.307Z,1.83
2023-06-30T15:31:55.356Z,2.30
2023-06-30T15:34:23.833Z,2.00
2023-06-30T15:36:53.509Z,1.57
2023-06-30T15:39:21.742Z,1.60
2023-06-30T15:41:50.082Z,1.80
2023-06-30T15:44:18.323Z,1.87
2023-06-30T15:46:46.693Z,1.90
2023-06-30T15:49:15.008Z,1.50
2023-06-30T15:51:43.245Z,1.67
2023-06-30T15:54:12.874Z,1.70
2023-06-30T15:56:41.086Z,1.63
2023-06-30T15:59:09.274Z,1.90
2023-06-30T16:01:37.470Z,1.70
2023-06-30T16:04:05.967Z,1.70
2023-06-30T16:06:34.294Z,1.80
2023-06-30T16:09:02.472Z,1.50
2023-06-30T16:11:32.028Z,1.63
2023-06-30T16:14:00.260Z,2.03
2023-06-30T16:16:28.535Z,1.90
2023-06-30T16:18:56.774Z,1.77
2023-06-30T16:21:24.972Z,1.87
2023-06-30T16:23:53.180Z,2.03
2023-06-30T16:26:21.516Z,1.83
2023-06-30T16:28:51.063Z,2.07
2023-06-30T16:31:19.372Z,1.80
2023-06-30T16:33:47.666Z,1.97
2023-06-30T16:36:15.913Z,1.70
2023-06-30T16:38:44.424Z,1.83
2023-06-30T16:41:12.686Z,2.07
2023-06-30T16:43:40.901Z,1.77
2023-06-30T16:46:10.456Z,1.97
2023-06-30T16:48:38.671Z,1.70
2023-06-30T16:51:06.880Z,1.77
2023-06-30T16:53:35.108Z,1.97
2023-06-30T16:56:03.333Z,1.70
2023-06-30T16:58:31.675Z,1.57
2023-06-30T17:00:59.915Z,1.80
2023-06-30T17:03:29.554Z,1.80
2023-06-30T17:05:58.047Z,2.20
2023-06-30T17:08:26.496Z,2.17
2023-06-30T17:10:54.714Z,2.00
2023-06-30T17:13:23.007Z,2.10
2023-06-30T17:15:51.289Z,1.67
2023-06-30T17:18:19.674Z,2.60
2023-06-30T17:20:49.206Z,2.30
2023-06-30T17:23:17.432Z,2.13
2023-06-30T17:25:45.898Z,1.90
2023-06-30T17:28:14.317Z,1.80
2023-06-30T17:30:42.539Z,1.97
2023-06-30T17:33:10.758Z,1.80
2023-06-30T17:35:38.975Z,2.00
2023-06-30T17:38:08.511Z,2.07
2023-06-30T17:40:36.742Z,1.80
2023-06-30T17:43:04.976Z,1.80
2023-06-30T17:45:33.227Z,2.20
2023-06-30T17:48:01.503Z,2.67
2023-06-30T17:50:29.739Z,2.17
2023-06-30T17:52:57.943Z,1.77
2023-06-30T17:55:27.535Z,1.90
2023-06-30T17:57:55.785Z,1.83
2023-06-30T18:00:24.035Z,2.00
2023-06-30T18:02:53.716Z,2.73
2023-06-30T18:05:22.504Z,2.60
2023-06-30T18:07:50.726Z,5.83
2023-06-30T18:10:20.610Z,2.77
2023-06-30T18:12:50.234Z,2.60
2023-06-30T18:15:18.501Z,2.00
2023-06-30T18:17:46.803Z,2.10
2023-06-30T18:20:15.041Z,2.30
2023-06-30T18:22:43.278Z,2.03
2023-06-30T18:25:11.662Z,2.10
2023-06-30T18:27:39.869Z,2.07
2023-06-30T18:30:10.169Z,2.20
2023-06-30T18:32:38.414Z,2.40
2023-06-30T18:35:08.566Z,2.00
2023-06-30T18:37:36.763Z,1.97
2023-06-30T18:40:05.248Z,2.03
2023-06-30T18:42:33.674Z,1.70
2023-06-30T18:45:04.522Z,1.90
2023-06-30T18:47:34.174Z,2.10
2023-06-30T18:50:03.044Z,2.77
2023-06-30T18:52:31.368Z,2.40
2023-06-30T18:54:59.970Z,2.60
2023-06-30T18:57:27.852Z,2.13
2023-06-30T18:59:56.080Z,2.20
2023-06-30T19:02:26.614Z,2.30
2023-06-30T19:04:55.985Z,2.00
2023-06-30T19:07:23.965Z,2.10
2023-06-30T19:09:51.824Z,1.80
2023-06-30T19:12:19.762Z,1.73
2023-06-30T19:14:47.655Z,2.03
2023-06-30T19:17:15.545Z,1.90
2023-06-30T19:19:43.399Z,2.00
2023-06-30T19:22:12.677Z,2.03
2023-06-30T19:24:41.050Z,1.97
2023-06-30T19:27:08.983Z,1.90
2023-06-30T19:29:36.858Z,1.90
2023-06-30T19:32:06.922Z,2.00
2023-06-30T19:34:34.927Z,2.40
2023-06-30T19:37:02.800Z,1.80
2023-06-30T19:39:32.052Z,1.80
2023-06-30T19:41:59.989Z,2.60
2023-06-30T19:44:27.864Z,2.13
2023-06-30T19:46:55.812Z,2.37
2023-06-30T19:49:23.972Z,2.30
2023-06-30T19:51:51.858Z,2.00
2023-06-30T19:54:19.771Z,2.00
2023-06-30T19:56:49.033Z,2.13
2023-06-30T19:59:17.517Z,2.20
2023-06-30T20:01:45.422Z,1.90
2023-06-30T20:04:13.376Z,2.07
2023-06-30T20:06:41.823Z,1.90
2023-06-30T20:09:10.140Z,2.20
2023-06-30T20:11:38.033Z,2.20
2023-06-30T20:14:07.340Z,2.00
2023-06-30T20:16:35.565Z,2.23
2023-06-30T20:19:03.553Z,2.10
2023-06-30T20:21:31.481Z,2.10
2023-06-30T20:23:59.404Z,2.20
2023-06-30T20:26:27.323Z,2.37
2023-06-30T20:28:55.332Z,2.10
2023-06-30T20:31:24.973Z,2.30
2023-06-30T20:33:52.930Z,1.97
2023-06-30T20:36:20.847Z,2.00
2023-06-30T20:38:48.983Z,2.47
2023-06-30T20:41:16.931Z,1.90
2023-06-30T20:43:44.780Z,2.00
2023-06-30T20:46:12.656Z,2.00
2023-06-30T20:48:41.890Z,2.00
2023-06-30T20:51:09.777Z,2.10
2023-06-30T20:53:37.692Z,2.30
2023-06-30T20:56:06.018Z,2.40
2023-06-30T20:58:33.904Z,2.10
2023-06-30T21:01:01.760Z,2.40
2023-06-30T21:03:29.762Z,2.10
2023-06-30T21:05:59.140Z,2.40
2023-06-30T21:08:27.080Z,2.43
2023-06-30T21:10:55.028Z,2.30
2023-06-30T21:13:23.298Z,2.33
2023-06-30T21:15:51.531Z,2.60
2023-06-30T21:18:19.744Z,2.40
2023-06-30T21:20:47.850Z,2.50
2023-06-30T21:23:17.257Z,2.27
2023-06-30T21:25:45.389Z,2.60
2023-06-30T21:28:13.271Z,2.10
2023-06-30T21:30:41.195Z,2.27
2023-06-30T21:33:09.191Z,2.60
2023-06-30T21:35:37.114Z,2.03
2023-06-30T21:38:05.085Z,2.10
2023-06-30T21:40:34.669Z,2.17
2023-06-30T21:43:02.579Z,2.33
2023-06-30T21:45:30.442Z,1.73
2023-06-30T21:47:58.370Z,2.30
2023-06-30T21:50:26.263Z,2.20
2023-06-30T21:52:54.462Z,2.20
2023-06-30T21:55:23.074Z,2.30
2023-06-30T21:57:52.679Z,2.07
2023-06-30T22:00:21.760Z,2.40
2023-06-30T22:02:56.141Z,2.13
2023-06-30T22:05:24.425Z,2.10
2023-06-30T22:07:52.326Z,2.00
2023-06-30T22:10:20.230Z,1.90
2023-06-30T22:12:48.370Z,2.00
2023-06-30T22:15:17.727Z,2.30
2023-06-30T22:17:45.644Z,2.20
2023-06-30T22:20:13.598Z,2.00
2023-06-30T22:22:41.482Z,1.77
2023-06-30T22:25:10.183Z,2.50
2023-06-30T22:27:38.173Z,2.00
2023-06-30T22:30:07.436Z,2.00
2023-06-30T22:32:36.755Z,2.50
2023-06-30T22:35:04.826Z,2.03
2023-06-30T22:37:32.817Z,2.00
2023-06-30T22:40:01.173Z,2.10
2023-06-30T22:42:29.047Z,1.93
2023-06-30T22:44:56.932Z,2.30
2023-06-30T22:47:24.853Z,1.90
2023-06-30T22:49:54.192Z,2.00
2023-06-30T22:52:22.113Z,2.10
2023-06-30T22:54:49.979Z,2.00
2023-06-30T22:57:17.876Z,2.20
2023-06-30T22:59:45.835Z,2.00
2023-06-30T23:02:13.759Z,2.20
2023-06-30T23:04:41.666Z,2.13
2023-06-30T23:07:10.917Z,2.00
2023-06-30T23:09:38.855Z,2.10
2023-06-30T23:12:09.402Z,2.00
2023-06-30T23:14:37.680Z,1.77
2023-06-30T23:17:07.292Z,1.70
2023-06-30T23:19:36.013Z,2.50
2023-06-30T23:22:07.489Z,1.90
2023-06-30T23:24:37.493Z,2.00
2023-06-30T23:27:05.944Z,2.07
2023-06-30T23:29:36.208Z,2.17
2023-06-30T23:32:07.342Z,1.90
2023-06-30T23:34:37.072Z,1.90
2023-06-30T23:37:06.229Z,2.10
2023-06-30T23:39:34.993Z,1.87
2023-06-30T23:42:04.572Z,2.20
2023-06-30T23:44:32.803Z,2.00
2023-06-30T23:47:04.219Z,2.10
2023-06-30T23:49:32.799Z,1.90
2023-06-30T23:52:00.654Z,1.90
2023-06-30T23:54:28.523Z,1.90
2023-06-30T23:56:56.451Z,2.00
2023-06-30T23:59:25.686Z,2.00
